sensor_id;sensor_type;location;lat;lon;timestamp;pressure;altitude;pressure_sealevel;temperature;humidity
5753;BME280;2901;42.140;24.760;2023-07-22T00:00:13;99244.25;;;26.63;80.34
5753;BME280;2901;42.140;24.760;2023-07-22T00:02:41;99247.84;;;26.62;81.02
5753;BME280;2901;42.140;24.760;2023-07-22T00:05:07;99252.56;;;26.59;81.31
5753;BME280;2901;42.140;24.760;2023-07-22T00:07:33;99248.09;;;26.59;81.12
5753;BME280;2901;42.140;24.760;2023-07-22T00:09:59;99233.63;;;26.63;80.78
5753;BME280;2901;42.140;24.760;2023-07-22T00:12:25;99238.31;;;26.60;81.11
5753;BME280;2901;42.140;24.760;2023-07-22T00:14:51;99231.78;;;26.53;81.58
5753;BME280;2901;42.140;24.760;2023-07-22T00:17:17;99239.59;;;26.54;81.46
5753;BME280;2901;42.140;24.760;2023-07-22T00:19:42;99235.28;;;26.53;81.53
5753;BME280;2901;42.140;24.760;2023-07-22T00:22:08;99245.63;;;26.45;82.13
5753;BME280;2901;42.140;24.760;2023-07-22T00:24:33;99242.00;;;26.46;81.94
5753;BME280;2901;42.140;24.760;2023-07-22T00:26:59;99258.91;;;26.45;82.12
5753;BME280;2901;42.140;24.760;2023-07-22T00:29:24;99245.84;;;26.42;82.22
5753;BME280;2901;42.140;24.760;2023-07-22T00:31:49;99243.19;;;26.42;82.50
5753;BME280;2901;42.140;24.760;2023-07-22T00:34:15;99250.41;;;26.29;83.17
5753;BME280;2901;42.140;24.760;2023-07-22T00:36:40;99254.00;;;26.28;83.24
5753;BME280;2901;42.140;24.760;2023-07-22T00:39:05;99263.56;;;26.30;83.27
5753;BME280;2901;42.140;24.760;2023-07-22T00:41:31;99264.19;;;26.34;83.06
5753;BME280;2901;42.140;24.760;2023-07-22T00:43:57;99260.78;;;26.32;83.19
5753;BME280;2901;42.140;24.760;2023-07-22T00:46:22;99247.25;;;26.24;83.13
5753;BME280;2901;42.140;24.760;2023-07-22T00:48:48;99260.41;;;26.25;83.45
5753;BME280;2901;42.140;24.760;2023-07-22T00:51:15;99264.63;;;26.28;83.55
5753;BME280;2901;42.140;24.760;2023-07-22T00:53:40;99271.88;;;26.26;83.81
5753;BME280;2901;42.140;24.760;2023-07-22T00:56:06;99266.16;;;26.19;83.88
5753;BME280;2901;42.140;24.760;2023-07-22T00:58:32;99274.25;;;26.18;83.82
5753;BME280;2901;42.140;24.760;2023-07-22T01:00:58;99282.22;;;26.18;84.20
5753;BME280;2901;42.140;24.760;2023-07-22T01:03:24;99279.56;;;26.18;84.44
5753;BME280;2901;42.140;24.760;2023-07-22T01:05:51;99292.28;;;26.13;84.48
5753;BME280;2901;42.140;24.760;2023-07-22T01:08:17;99274.16;;;26.07;84.86
5753;BME280;2901;42.140;24.760;2023-07-22T01:10:43;99282.84;;;26.09;84.77
5753;BME280;2901;42.140;24.760;2023-07-22T01:13:08;99285.28;;;26.12;84.64
5753;BME280;2901;42.140;24.760;2023-07-22T01:15:34;99293.25;;;26.12;84.57
5753;BME280;2901;42.140;24.760;2023-07-22T01:18:00;99294.72;;;26.16;84.61
5753;BME280;2901;42.140;24.760;2023-07-22T01:20:29;99281.38;;;26.17;84.33
5753;BME280;2901;42.140;24.760;2023-07-22T01:22:55;99276.56;;;26.22;84.03
5753;BME280;2901;42.140;24.760;2023-07-22T01:25:21;99286.00;;;26.26;83.98
5753;BME280;2901;42.140;24.760;2023-07-22T01:27:51;99281.81;;;26.35;82.81
5753;BME280;2901;42.140;24.760;2023-07-22T01:30:16;99296.44;;;26.41;82.89
5753;BME280;2901;42.140;24.760;2023-07-22T01:32:42;99298.25;;;26.40;83.26
5753;BME280;2901;42.140;24.760;2023-07-22T01:35:08;99298.25;;;26.40;82.73
5753;BME280;2901;42.140;24.760;2023-07-22T01:37:34;99295.06;;;26.35;83.41
5753;BME280;2901;42.140;24.760;2023-07-22T01:40:00;99290.75;;;26.34;83.92
5753;BME280;2901;42.140;24.760;2023-07-22T01:42:25;99290.16;;;26.42;83.06
5753;BME280;2901;42.140;24.760;2023-07-22T01:44:52;99288.13;;;26.45;82.19
5753;BME280;2901;42.140;24.760;2023-07-22T01:47:17;99307.00;;;26.53;82.69
5753;BME280;2901;42.140;24.760;2023-07-22T01:49:44;99299.13;;;26.52;81.22
5753;BME280;2901;42.140;24.760;2023-07-22T01:52:09;99307.09;;;26.52;82.07
5753;BME280;2901;42.140;24.760;2023-07-22T01:54:34;99295.00;;;26.48;82.79
5753;BME280;2901;42.140;24.760;2023-07-22T01:57:00;99291.97;;;26.41;82.75
5753;BME280;2901;42.140;24.760;2023-07-22T01:59:25;99296.31;;;26.42;83.06
5753;BME280;2901;42.140;24.760;2023-07-22T02:01:50;99284.00;;;26.41;82.50
5753;BME280;2901;42.140;24.760;2023-07-22T02:04:16;99295.13;;;26.46;82.54
5753;BME280;2901;42.140;24.760;2023-07-22T02:06:42;99295.75;;;26.50;82.93
5753;BME280;2901;42.140;24.760;2023-07-22T02:09:07;99301.91;;;26.50;82.27
5753;BME280;2901;42.140;24.760;2023-07-22T02:11:35;99302.16;;;26.47;82.52
5753;BME280;2901;42.140;24.760;2023-07-22T02:14:00;99301.16;;;26.48;82.70
5753;BME280;2901;42.140;24.760;2023-07-22T02:16:25;99305.75;;;26.46;83.16
5753;BME280;2901;42.140;24.760;2023-07-22T02:18:51;99306.00;;;26.43;83.60
5753;BME280;2901;42.140;24.760;2023-07-22T02:21:16;99301.63;;;26.42;83.17
5753;BME280;2901;42.140;24.760;2023-07-22T02:23:42;99299.72;;;26.44;83.02
5753;BME280;2901;42.140;24.760;2023-07-22T02:26:07;99312.03;;;26.45;83.43
5753;BME280;2901;42.140;24.760;2023-07-22T02:28:33;99313.97;;;26.43;83.04
5753;BME280;2901;42.140;24.760;2023-07-22T02:31:01;99318.31;;;26.44;83.20
5753;BME280;2901;42.140;24.760;2023-07-22T02:33:27;99320.97;;;26.44;83.58
5753;BME280;2901;42.140;24.760;2023-07-22T02:35:52;99314.91;;;26.42;83.70
5753;BME280;2901;42.140;24.760;2023-07-22T02:38:18;99309.81;;;26.39;83.62
5753;BME280;2901;42.140;24.760;2023-07-22T02:40:43;99304.50;;;26.39;83.96
5753;BME280;2901;42.140;24.760;2023-07-22T02:43:09;99293.03;;;26.39;83.87
5753;BME280;2901;42.140;24.760;2023-07-22T02:45:34;99295.81;;;26.37;83.82
5753;BME280;2901;42.140;24.760;2023-07-22T02:48:00;99290.97;;;26.31;83.82
5753;BME280;2901;42.140;24.760;2023-07-22T02:50:26;99295.66;;;26.27;84.30
5753;BME280;2901;42.140;24.760;2023-07-22T02:52:51;99297.47;;;26.27;84.60
5753;BME280;2901;42.140;24.760;2023-07-22T02:55:17;99301.31;;;26.23;84.78
5753;BME280;2901;42.140;24.760;2023-07-22T02:57:47;99298.88;;;26.20;85.05
5753;BME280;2901;42.140;24.760;2023-07-22T03:00:15;99294.66;;;26.17;85.10
5753;BME280;2901;42.140;24.760;2023-07-22T03:02:49;99299.09;;;26.17;85.20
5753;BME280;2901;42.140;24.760;2023-07-22T03:05:14;99305.78;;;26.10;85.18
5753;BME280;2901;42.140;24.760;2023-07-22T03:07:40;99303.84;;;26.12;85.25
5753;BME280;2901;42.140;24.760;2023-07-22T03:10:06;99297.09;;;26.08;85.56
5753;BME280;2901;42.140;24.760;2023-07-22T03:12:32;99306.72;;;26.09;85.52
5753;BME280;2901;42.140;24.760;2023-07-22T03:14:58;99293.47;;;26.09;86.00
5753;BME280;2901;42.140;24.760;2023-07-22T03:17:24;99291.56;;;26.11;85.61
5753;BME280;2901;42.140;24.760;2023-07-22T03:19:49;99287.84;;;26.13;85.55
5753;BME280;2901;42.140;24.760;2023-07-22T03:22:16;99295.66;;;26.15;85.78
5753;BME280;2901;42.140;24.760;2023-07-22T03:24:42;99300.81;;;26.18;85.52
5753;BME280;2901;42.140;24.760;2023-07-22T03:27:08;99293.56;;;26.20;85.63
5753;BME280;2901;42.140;24.760;2023-07-22T03:29:33;99300.44;;;26.22;85.63
5753;BME280;2901;42.140;24.760;2023-07-22T03:31:59;99295.75;;;26.26;85.20
5753;BME280;2901;42.140;24.760;2023-07-22T03:34:28;99316.69;;;26.30;85.06
5753;BME280;2901;42.140;24.760;2023-07-22T03:36:54;99305.69;;;26.35;85.15
5753;BME280;2901;42.140;24.760;2023-07-22T03:39:19;99309.97;;;26.38;84.63
5753;BME280;2901;42.140;24.760;2023-07-22T03:41:45;99308.13;;;26.38;84.89
5753;BME280;2901;42.140;24.760;2023-07-22T03:44:10;99304.75;;;26.36;84.62
5753;BME280;2901;42.140;24.760;2023-07-22T03:46:37;99308.97;;;26.39;84.28
5753;BME280;2901;42.140;24.760;2023-07-22T03:49:02;99313.44;;;26.38;84.59
5753;BME280;2901;42.140;24.760;2023-07-22T03:51:28;99310.69;;;26.40;84.34
5753;BME280;2901;42.140;24.760;2023-07-22T03:53:53;99317.09;;;26.48;84.04
5753;BME280;2901;42.140;24.760;2023-07-22T03:56:18;99312.41;;;26.52;84.39
5753;BME280;2901;42.140;24.760;2023-07-22T03:58:44;99312.78;;;26.58;83.55
5753;BME280;2901;42.140;24.760;2023-07-22T04:01:13;99310.75;;;26.62;83.48
5753;BME280;2901;42.140;24.760;2023-07-22T04:03:38;99300.28;;;26.71;82.83
5753;BME280;2901;42.140;24.760;2023-07-22T04:06:04;99315.16;;;26.74;82.99
5753;BME280;2901;42.140;24.760;2023-07-22T04:08:29;99328.84;;;26.80;83.04
5753;BME280;2901;42.140;24.760;2023-07-22T04:10:56;99336.63;;;26.84;83.27
5753;BME280;2901;42.140;24.760;2023-07-22T04:13:23;99320.66;;;26.84;83.04
5753;BME280;2901;42.140;24.760;2023-07-22T04:15:49;99325.03;;;26.96;82.55
5753;BME280;2901;42.140;24.760;2023-07-22T04:18:18;99327.72;;;27.07;82.42
5753;BME280;2901;42.140;24.760;2023-07-22T04:20:44;99321.19;;;27.11;81.80
5753;BME280;2901;42.140;24.760;2023-07-22T04:23:10;99325.69;;;27.21;81.41
5753;BME280;2901;42.140;24.760;2023-07-22T04:25:43;99326.25;;;27.14;82.15
5753;BME280;2901;42.140;24.760;2023-07-22T04:28:09;99328.09;;;27.13;81.42
5753;BME280;2901;42.140;24.760;2023-07-22T04:30:35;99327.38;;;27.22;81.75
5753;BME280;2901;42.140;24.760;2023-07-22T04:33:02;99328.47;;;27.31;81.73
5753;BME280;2901;42.140;24.760;2023-07-22T04:35:31;99321.09;;;27.34;80.53
5753;BME280;2901;42.140;24.760;2023-07-22T04:37:57;99318.81;;;27.41;80.50
5753;BME280;2901;42.140;24.760;2023-07-22T04:40:23;99323.19;;;27.42;80.19
5753;BME280;2901;42.140;24.760;2023-07-22T04:42:50;99314.63;;;27.50;79.98
5753;BME280;2901;42.140;24.760;2023-07-22T04:45:16;99330.09;;;27.56;79.92
5753;BME280;2901;42.140;24.760;2023-07-22T04:47:43;99327.91;;;27.61;79.87
5753;BME280;2901;42.140;24.760;2023-07-22T04:50:12;99322.00;;;27.68;78.97
5753;BME280;2901;42.140;24.760;2023-07-22T04:52:37;99318.84;;;27.74;79.25
5753;BME280;2901;42.140;24.760;2023-07-22T04:55:03;99327.78;;;27.73;79.40
5753;BME280;2901;42.140;24.760;2023-07-22T04:57:41;99320.66;;;27.85;78.83
5753;BME280;2901;42.140;24.760;2023-07-22T05:00:08;99332.84;;;27.99;77.52
5753;BME280;2901;42.140;24.760;2023-07-22T05:02:45;99335.50;;;28.10;78.10
5753;BME280;2901;42.140;24.760;2023-07-22T05:05:12;99322.91;;;28.23;76.62
5753;BME280;2901;42.140;24.760;2023-07-22T05:07:38;99335.69;;;28.29;75.99
5753;BME280;2901;42.140;24.760;2023-07-22T05:10:03;99330.72;;;28.35;76.48
5753;BME280;2901;42.140;24.760;2023-07-22T05:12:29;99331.06;;;28.42;76.21
5753;BME280;2901;42.140;24.760;2023-07-22T05:14:54;99329.13;;;28.44;76.38
5753;BME280;2901;42.140;24.760;2023-07-22T05:17:19;99325.00;;;28.51;75.30
5753;BME280;2901;42.140;24.760;2023-07-22T05:19:45;99321.59;;;28.49;75.55
5753;BME280;2901;42.140;24.760;2023-07-22T05:22:10;99318.22;;;28.47;75.25
5753;BME280;2901;42.140;24.760;2023-07-22T05:24:36;99332.41;;;28.48;75.53
5753;BME280;2901;42.140;24.760;2023-07-22T05:27:01;99335.91;;;28.48;74.61
5753;BME280;2901;42.140;24.760;2023-07-22T05:29:26;99332.00;;;28.52;74.46
5753;BME280;2901;42.140;24.760;2023-07-22T05:31:52;99341.31;;;28.58;73.51
5753;BME280;2901;42.140;24.760;2023-07-22T05:34:17;99336.69;;;28.60;74.08
5753;BME280;2901;42.140;24.760;2023-07-22T05:36:42;99343.38;;;28.54;74.22
5753;BME280;2901;42.140;24.760;2023-07-22T05:39:08;99337.66;;;28.59;75.13
5753;BME280;2901;42.140;24.760;2023-07-22T05:41:33;99334.75;;;28.62;74.59
5753;BME280;2901;42.140;24.760;2023-07-22T05:43:59;99331.00;;;28.64;74.47
5753;BME280;2901;42.140;24.760;2023-07-22T05:46:24;99331.47;;;28.69;74.38
5753;BME280;2901;42.140;24.760;2023-07-22T05:48:50;99331.97;;;28.63;74.27
5753;BME280;2901;42.140;24.760;2023-07-22T05:51:16;99339.28;;;28.50;75.01
5753;BME280;2901;42.140;24.760;2023-07-22T05:53:42;99338.00;;;28.33;75.13
5753;BME280;2901;42.140;24.760;2023-07-22T05:56:07;99332.84;;;28.21;75.97
5753;BME280;2901;42.140;24.760;2023-07-22T05:58:33;99331.88;;;28.22;76.15
5753;BME280;2901;42.140;24.760;2023-07-22T06:00:58;99323.88;;;28.22;76.25
5753;BME280;2901;42.140;24.760;2023-07-22T06:03:24;99325.97;;;28.39;76.26
5753;BME280;2901;42.140;24.760;2023-07-22T06:05:49;99333.31;;;28.58;74.67
5753;BME280;2901;42.140;24.760;2023-07-22T06:08:14;99334.63;;;28.63;74.43
5753;BME280;2901;42.140;24.760;2023-07-22T06:10:40;99319.31;;;28.76;73.35
5753;BME280;2901;42.140;24.760;2023-07-22T06:13:06;99326.69;;;28.84;72.95
5753;BME280;2901;42.140;24.760;2023-07-22T06:15:32;99317.78;;;28.95;71.95
5753;BME280;2901;42.140;24.760;2023-07-22T06:17:57;99325.97;;;29.03;72.00
5753;BME280;2901;42.140;24.760;2023-07-22T06:20:23;99323.78;;;29.08;71.92
5753;BME280;2901;42.140;24.760;2023-07-22T06:22:48;99315.94;;;29.16;71.41
5753;BME280;2901;42.140;24.760;2023-07-22T06:25:14;99319.31;;;29.18;71.69
5753;BME280;2901;42.140;24.760;2023-07-22T06:27:39;99315.22;;;29.34;70.15
5753;BME280;2901;42.140;24.760;2023-07-22T06:30:05;99322.22;;;29.56;69.11
5753;BME280;2901;42.140;24.760;2023-07-22T06:32:30;99316.22;;;29.64;68.50
5753;BME280;2901;42.140;24.760;2023-07-22T06:34:56;99319.56;;;29.56;68.78
5753;BME280;2901;42.140;24.760;2023-07-22T06:37:23;99320.28;;;29.38;69.10
5753;BME280;2901;42.140;24.760;2023-07-22T06:39:48;99319.00;;;29.32;69.39
5753;BME280;2901;42.140;24.760;2023-07-22T06:42:14;99322.22;;;29.26;70.60
5753;BME280;2901;42.140;24.760;2023-07-22T06:44:39;99314.41;;;29.34;70.54
5753;BME280;2901;42.140;24.760;2023-07-22T06:47:05;99311.19;;;29.40;69.96
5753;BME280;2901;42.140;24.760;2023-07-22T06:49:31;99315.72;;;29.49;69.42
5753;BME280;2901;42.140;24.760;2023-07-22T06:51:56;99318.81;;;29.54;70.19
5753;BME280;2901;42.140;24.760;2023-07-22T06:54:22;99315.91;;;29.57;70.07
5753;BME280;2901;42.140;24.760;2023-07-22T06:56:47;99323.66;;;29.60;69.68
5753;BME280;2901;42.140;24.760;2023-07-22T06:59:12;99333.88;;;29.55;69.50
5753;BME280;2901;42.140;24.760;2023-07-22T07:01:38;99333.34;;;29.61;68.50
5753;BME280;2901;42.140;24.760;2023-07-22T07:04:03;99332.97;;;29.75;68.78
5753;BME280;2901;42.140;24.760;2023-07-22T07:06:29;99340.25;;;30.04;68.05
5753;BME280;2901;42.140;24.760;2023-07-22T07:08:55;99323.16;;;30.16;66.37
5753;BME280;2901;42.140;24.760;2023-07-22T07:11:20;99322.31;;;30.25;66.00
5753;BME280;2901;42.140;24.760;2023-07-22T07:13:46;99313.88;;;30.29;66.44
5753;BME280;2901;42.140;24.760;2023-07-22T07:16:28;99313.09;;;30.48;65.94
5753;BME280;2901;42.140;24.760;2023-07-22T07:18:54;99315.19;;;30.54;65.69
5753;BME280;2901;42.140;24.760;2023-07-22T07:21:20;99311.38;;;30.57;65.41
5753;BME280;2901;42.140;24.760;2023-07-22T07:23:47;99312.22;;;30.67;65.49
5753;BME280;2901;42.140;24.760;2023-07-22T07:26:12;99311.38;;;30.66;64.94
5753;BME280;2901;42.140;24.760;2023-07-22T07:28:38;99318.13;;;30.70;64.25
5753;BME280;2901;42.140;24.760;2023-07-22T07:31:03;99322.94;;;30.57;64.80
5753;BME280;2901;42.140;24.760;2023-07-22T07:33:29;99321.09;;;30.77;64.19
5753;BME280;2901;42.140;24.760;2023-07-22T07:35:54;99319.81;;;31.00;63.29
5753;BME280;2901;42.140;24.760;2023-07-22T07:38:19;99306.59;;;31.08;63.18
5753;BME280;2901;42.140;24.760;2023-07-22T07:40:45;99305.81;;;31.25;61.56
5753;BME280;2901;42.140;24.760;2023-07-22T07:43:10;99311.00;;;31.36;60.95
5753;BME280;2901;42.140;24.760;2023-07-22T07:45:39;99303.38;;;31.51;61.10
5753;BME280;2901;42.140;24.760;2023-07-22T07:48:05;99307.72;;;31.52;60.90
5753;BME280;2901;42.140;24.760;2023-07-22T07:50:32;99311.06;;;31.64;61.02
5753;BME280;2901;42.140;24.760;2023-07-22T07:52:57;99315.41;;;31.74;59.56
5753;BME280;2901;42.140;24.760;2023-07-22T07:55:22;99315.66;;;31.81;59.00
5753;BME280;2901;42.140;24.760;2023-07-22T07:57:48;99314.91;;;31.52;59.57
5753;BME280;2901;42.140;24.760;2023-07-22T08:00:13;99315.75;;;31.52;59.34
5753;BME280;2901;42.140;24.760;2023-07-22T08:02:39;99321.38;;;31.59;59.85
5753;BME280;2901;42.140;24.760;2023-07-22T08:05:04;99318.66;;;31.68;59.35
5753;BME280;2901;42.140;24.760;2023-07-22T08:07:30;99316.19;;;31.57;59.62
5753;BME280;2901;42.140;24.760;2023-07-22T08:09:56;99314.31;;;31.67;60.30
5753;BME280;2901;42.140;24.760;2023-07-22T08:12:23;99322.91;;;31.88;59.74
5753;BME280;2901;42.140;24.760;2023-07-22T08:14:48;99324.22;;;32.12;58.54
5753;BME280;2901;42.140;24.760;2023-07-22T08:17:14;99317.50;;;32.25;58.21
5753;BME280;2901;42.140;24.760;2023-07-22T08:19:39;99310.72;;;32.49;57.02
5753;BME280;2901;42.140;24.760;2023-07-22T08:22:04;99309.25;;;32.54;56.65
5753;BME280;2901;42.140;24.760;2023-07-22T08:24:31;99309.81;;;32.58;55.80
5753;BME280;2901;42.140;24.760;2023-07-22T08:26:57;99301.84;;;32.66;55.55
5753;BME280;2901;42.140;24.760;2023-07-22T08:29:23;99296.44;;;32.83;55.11
5753;BME280;2901;42.140;24.760;2023-07-22T08:31:49;99290.91;;;33.03;54.36
5753;BME280;2901;42.140;24.760;2023-07-22T08:34:14;99293.03;;;33.17;53.88
5753;BME280;2901;42.140;24.760;2023-07-22T08:36:39;99282.28;;;33.17;53.66
5753;BME280;2901;42.140;24.760;2023-07-22T08:39:05;99279.81;;;33.23;53.78
5753;BME280;2901;42.140;24.760;2023-07-22T08:41:31;99281.91;;;33.37;53.47
5753;BME280;2901;42.140;24.760;2023-07-22T08:43:59;99286.59;;;33.35;52.98
5753;BME280;2901;42.140;24.760;2023-07-22T08:46:28;99273.91;;;33.20;53.65
5753;BME280;2901;42.140;24.760;2023-07-22T08:48:55;99285.91;;;33.08;52.95
5753;BME280;2901;42.140;24.760;2023-07-22T08:51:22;99280.84;;;33.05;52.16
5753;BME280;2901;42.140;24.760;2023-07-22T08:53:49;99276.13;;;32.99;52.94
5753;BME280;2901;42.140;24.760;2023-07-22T08:56:16;99284.91;;;33.09;52.67
5753;BME280;2901;42.140;24.760;2023-07-22T08:58:41;99281.19;;;33.27;51.43
5753;BME280;2901;42.140;24.760;2023-07-22T09:01:08;99279.31;;;33.54;51.71
5753;BME280;2901;42.140;24.760;2023-07-22T09:03:33;99270.53;;;33.77;50.63
5753;BME280;2901;42.140;24.760;2023-07-22T09:05:59;99266.84;;;33.78;50.87
5753;BME280;2901;42.140;24.760;2023-07-22T09:08:26;99266.47;;;33.73;50.11
5753;BME280;2901;42.140;24.760;2023-07-22T09:10:51;99256.66;;;33.56;50.41
5753;BME280;2901;42.140;24.760;2023-07-22T09:13:18;99270.50;;;33.69;50.76
5753;BME280;2901;42.140;24.760;2023-07-22T09:15:44;99272.38;;;33.69;50.00
5753;BME280;2901;42.140;24.760;2023-07-22T09:18:10;99267.63;;;33.63;50.62
5753;BME280;2901;42.140;24.760;2023-07-22T09:20:35;99257.63;;;33.89;49.50
5753;BME280;2901;42.140;24.760;2023-07-22T09:23:01;99271.53;;;34.18;48.97
5753;BME280;2901;42.140;24.760;2023-07-22T09:25:27;99267.94;;;34.10;48.45
5753;BME280;2901;42.140;24.760;2023-07-22T09:27:55;99251.19;;;34.24;48.16
5753;BME280;2901;42.140;24.760;2023-07-22T09:30:30;99248.19;;;34.43;48.17
5753;BME280;2901;42.140;24.760;2023-07-22T09:32:57;99258.94;;;34.43;47.77
5753;BME280;2901;42.140;24.760;2023-07-22T09:35:29;99254.56;;;34.50;47.70
5753;BME280;2901;42.140;24.760;2023-07-22T09:37:55;99237.09;;;34.62;47.38
5753;BME280;2901;42.140;24.760;2023-07-22T09:40:25;99234.06;;;34.65;46.75
5753;BME280;2901;42.140;24.760;2023-07-22T09:42:55;99238.94;;;34.78;45.85
5753;BME280;2901;42.140;24.760;2023-07-22T09:45:23;99233.06;;;34.82;46.22
5753;BME280;2901;42.140;24.760;2023-07-22T09:47:50;99226.78;;;34.98;45.67
5753;BME280;2901;42.140;24.760;2023-07-22T09:50:18;99222.22;;;35.23;45.09
5753;BME280;2901;42.140;24.760;2023-07-22T09:52:45;99217.06;;;35.44;43.94
5753;BME280;2901;42.140;24.760;2023-07-22T09:55:11;99210.59;;;35.69;44.21
5753;BME280;2901;42.140;24.760;2023-07-22T09:57:40;99204.13;;;35.78;43.11
5753;BME280;2901;42.140;24.760;2023-07-22T10:00:08;99200.31;;;35.73;42.71
5753;BME280;2901;42.140;24.760;2023-07-22T10:02:35;99199.50;;;35.64;42.40
5753;BME280;2901;42.140;24.760;2023-07-22T10:05:01;99190.34;;;35.73;42.18
5753;BME280;2901;42.140;24.760;2023-07-22T10:07:27;99192.41;;;35.94;42.08
5753;BME280;2901;42.140;24.760;2023-07-22T10:09:54;99186.41;;;36.15;41.77
5753;BME280;2901;42.140;24.760;2023-07-22T10:12:20;99187.50;;;36.43;41.42
5753;BME280;2901;42.140;24.760;2023-07-22T10:14:46;99184.88;;;36.58;41.06
5753;BME280;2901;42.140;24.760;2023-07-22T10:17:13;99186.72;;;36.57;42.28
5753;BME280;2901;42.140;24.760;2023-07-22T10:19:39;99185.94;;;36.71;42.10
5753;BME280;2901;42.140;24.760;2023-07-22T10:22:05;99175.50;;;36.98;41.99
5753;BME280;2901;42.140;24.760;2023-07-22T10:24:33;99182.06;;;37.18;40.98
5753;BME280;2901;42.140;24.760;2023-07-22T10:26:59;99195.75;;;37.31;40.17
5753;BME280;2901;42.140;24.760;2023-07-22T10:29:25;99193.13;;;37.23;38.74
5753;BME280;2901;42.140;24.760;2023-07-22T10:31:53;99180.47;;;37.23;38.88
5753;BME280;2901;42.140;24.760;2023-07-22T10:34:21;99172.44;;;37.30;39.65
5753;BME280;2901;42.140;24.760;2023-07-22T10:36:47;99190.59;;;37.36;39.44
5753;BME280;2901;42.140;24.760;2023-07-22T10:39:27;99178.78;;;37.22;39.29
5753;BME280;2901;42.140;24.760;2023-07-22T10:42:03;99151.97;;;37.21;38.94
5753;BME280;2901;42.140;24.760;2023-07-22T10:44:36;99170.84;;;37.35;38.63
5753;BME280;2901;42.140;24.760;2023-07-22T10:47:02;99165.84;;;37.47;37.89
5753;BME280;2901;42.140;24.760;2023-07-22T10:49:47;99149.00;;;37.66;37.72
5753;BME280;2901;42.140;24.760;2023-07-22T10:52:12;99157.75;;;37.68;37.72
5753;BME280;2901;42.140;24.760;2023-07-22T10:54:39;99157.25;;;37.79;37.52
5753;BME280;2901;42.140;24.760;2023-07-22T10:59:48;99147.69;;;37.98;36.89
5753;BME280;2901;42.140;24.760;2023-07-22T11:02:23;99136.41;;;37.95;35.88
5753;BME280;2901;42.140;24.760;2023-07-22T11:04:49;99141.19;;;37.92;36.72
5753;BME280;2901;42.140;24.760;2023-07-22T11:07:15;99143.56;;;38.02;36.69
5753;BME280;2901;42.140;24.760;2023-07-22T11:09:40;99132.41;;;37.90;36.42
5753;BME280;2901;42.140;24.760;2023-07-22T11:12:12;99120.91;;;38.03;37.29
5753;BME280;2901;42.140;24.760;2023-07-22T11:14:49;99139.63;;;38.26;36.15
5753;BME280;2901;42.140;24.760;2023-07-22T11:17:15;99135.13;;;38.33;36.18
5753;BME280;2901;42.140;24.760;2023-07-22T11:19:42;99116.66;;;38.36;35.78
5753;BME280;2901;42.140;24.760;2023-07-22T11:22:08;99121.84;;;38.38;35.74
5753;BME280;2901;42.140;24.760;2023-07-22T11:24:34;99129.25;;;38.29;35.40
5753;BME280;2901;42.140;24.760;2023-07-22T11:27:04;99121.59;;;38.33;35.37
5753;BME280;2901;42.140;24.760;2023-07-22T11:29:30;99110.22;;;38.44;35.44
5753;BME280;2901;42.140;24.760;2023-07-22T11:31:56;99106.59;;;38.58;34.69
5753;BME280;2901;42.140;24.760;2023-07-22T11:34:23;99107.94;;;38.75;34.62
5753;BME280;2901;42.140;24.760;2023-07-22T11:36:50;99101.75;;;38.81;34.05
5753;BME280;2901;42.140;24.760;2023-07-22T11:39:18;99101.63;;;39.03;33.76
5753;BME280;2901;42.140;24.760;2023-07-22T11:41:44;99100.25;;;39.20;33.51
5753;BME280;2901;42.140;24.760;2023-07-22T11:44:12;99095.25;;;39.17;33.17
5753;BME280;2901;42.140;24.760;2023-07-22T11:47:06;99099.22;;;39.21;33.68
5753;BME280;2901;42.140;24.760;2023-07-22T11:49:36;99109.03;;;39.22;31.95
5753;BME280;2901;42.140;24.760;2023-07-22T11:54:33;99098.75;;;39.04;32.19
5753;BME280;2901;42.140;24.760;2023-07-22T11:57:20;99082.63;;;38.89;32.14
5753;BME280;2901;42.140;24.760;2023-07-22T11:59:51;99093.63;;;38.81;32.27
5753;BME280;2901;42.140;24.760;2023-07-22T12:02:27;99091.41;;;38.91;32.39
5753;BME280;2901;42.140;24.760;2023-07-22T12:05:00;99087.13;;;39.17;31.86
5753;BME280;2901;42.140;24.760;2023-07-22T12:07:26;99085.31;;;39.30;31.28
5753;BME280;2901;42.140;24.760;2023-07-22T12:09:54;99079.31;;;39.41;31.73
5753;BME280;2901;42.140;24.760;2023-07-22T12:12:20;99082.50;;;39.58;31.16
5753;BME280;2901;42.140;24.760;2023-07-22T12:14:45;99079.84;;;39.78;31.29
5753;BME280;2901;42.140;24.760;2023-07-22T12:17:11;99070.03;;;39.90;30.64
5753;BME280;2901;42.140;24.760;2023-07-22T12:19:36;99073.16;;;39.87;29.69
5753;BME280;2901;42.140;24.760;2023-07-22T12:22:01;99076.47;;;39.69;30.15
5753;BME280;2901;42.140;24.760;2023-07-22T12:24:28;99069.41;;;39.75;30.20
5753;BME280;2901;42.140;24.760;2023-07-22T12:26:53;99066.47;;;39.76;29.56
5753;BME280;2901;42.140;24.760;2023-07-22T12:29:19;99068.16;;;39.90;29.76
5753;BME280;2901;42.140;24.760;2023-07-22T12:31:44;99062.72;;;39.84;29.61
5753;BME280;2901;42.140;24.760;2023-07-22T12:34:09;99061.06;;;39.96;29.80
5753;BME280;2901;42.140;24.760;2023-07-22T12:36:35;99056.28;;;40.18;29.39
5753;BME280;2901;42.140;24.760;2023-07-22T12:39:00;99051.22;;;40.28;28.60
5753;BME280;2901;42.140;24.760;2023-07-22T12:41:25;99051.44;;;40.46;28.30
5753;BME280;2901;42.140;24.760;2023-07-22T12:43:51;99054.53;;;40.69;28.06
5753;BME280;2901;42.140;24.760;2023-07-22T12:46:17;99048.22;;;40.82;28.18
5753;BME280;2901;42.140;24.760;2023-07-22T12:48:42;99049.69;;;40.71;29.00
5753;BME280;2901;42.140;24.760;2023-07-22T12:51:07;99046.13;;;40.77;29.00
5753;BME280;2901;42.140;24.760;2023-07-22T12:53:34;99035.84;;;40.92;28.91
5753;BME280;2901;42.140;24.760;2023-07-22T12:56:00;99033.34;;;40.98;28.82
5753;BME280;2901;42.140;24.760;2023-07-22T12:58:27;99035.97;;;41.11;28.17
5753;BME280;2901;42.140;24.760;2023-07-22T13:00:53;99025.13;;;41.11;27.30
5753;BME280;2901;42.140;24.760;2023-07-22T13:03:18;99017.75;;;41.18;27.19
5753;BME280;2901;42.140;24.760;2023-07-22T13:05:44;99022.56;;;41.22;26.85
5753;BME280;2901;42.140;24.760;2023-07-22T13:08:09;99014.34;;;41.29;27.44
5753;BME280;2901;42.140;24.760;2023-07-22T13:10:35;99020.63;;;41.29;28.06